This is the latest recevied weather packets stored in our database for station/object OE2SWM. If no packets are shown the sender has not sent any weather packets the latest 10 day(s).
| Time | Temp. | Humidity | Pressure | Rain* | Wind** | Luminosity | Snow |
|---|---|---|---|---|---|---|---|
| 1777744800 | 15° C | 48% | 972 hPa | 0 mm | - | - | - |
| 1777744200 | 15.56° C | 46% | 973 hPa | 0 mm | - | - | - |
| 1777743600 | 15.56° C | 45% | 972 hPa | 0 mm | - | - | - |
| 1777743000 | 16.67° C | 44% | 972 hPa | 0 mm | - | - | - |
| 1777742400 | 18.89° C | 41% | 972 hPa | 0 mm | - | - | - |
| 1777741800 | 20° C | 33% | 972 hPa | 0 mm | - | - | - |
| 1777741200 | 21.67° C | 27% | 972 hPa | 0 mm | - | - | - |
| 1777740600 | 21.67° C | 25% | 972 hPa | 0 mm | - | - | - |
| 1777740000 | 21.67° C | 23% | 972 hPa | 0 mm | - | - | - |
| 1777739400 | 21.67° C | 25% | 972 hPa | 0 mm | - | - | - |
| 1777738800 | 21.67° C | 24% | 972 hPa | 0 mm | - | - | - |
| 1777738200 | 22.78° C | 23% | 973 hPa | 0 mm | - | - | - |
| 1777737600 | 22.78° C | 24% | 973 hPa | 0 mm | - | - | - |
| 1777737000 | 22.78° C | 25% | 973 hPa | 0 mm | - | - | - |
| 1777736400 | 22.78° C | 26% | 973 hPa | 0 mm | - | - | - |
| 1777735800 | 22.78° C | 25% | 973 hPa | 0 mm | - | - | - |
| 1777735200 | 22.78° C | 24% | 973 hPa | 0 mm | - | - | - |
| 1777734600 | 22.78° C | 24% | 973 hPa | 0 mm | - | - | - |
| 1777734000 | 22.78° C | 24% | 973 hPa | 0 mm | - | - | - |
| 1777733400 | 23.89° C | 23% | 973 hPa | 0 mm | - | - | - |
| 1777732800 | 22.78° C | 22% | 973 hPa | 0 mm | - | - | - |
| 1777732200 | 22.78° C | 22% | 973 hPa | 0 mm | - | - | - |
| 1777731600 | 22.78° C | 23% | 973 hPa | 0 mm | - | - | - |
| 1777731000 | 22.78° C | 26% | 973 hPa | 0 mm | - | - | - |
| 1777730400 | 22.78° C | 25% | 973 hPa | 0 mm | - | - | - |
* Rain latest hour (hover to see other rain measurements)
** Current wind speed in m/s (hover to see current wind gust speed)